sensor_id;sensor_type;location;lat;lon;timestamp;pressure;altitude;pressure_sealevel;temperature;humidity
22550;BME280;11441;57.164;-2.120;2023-04-15T00:00:55;100815.69;;;7.20;100.00
22550;BME280;11441;57.164;-2.120;2023-04-15T00:03:22;100815.88;;;7.15;100.00
22550;BME280;11441;57.164;-2.120;2023-04-15T00:05:50;100817.00;;;7.14;100.00
22550;BME280;11441;57.164;-2.120;2023-04-15T00:08:17;100824.09;;;7.15;100.00
22550;BME280;11441;57.164;-2.120;2023-04-15T00:10:45;100829.78;;;7.01;100.00
22550;BME280;11441;57.164;-2.120;2023-04-15T00:13:12;100829.75;;;7.10;100.00
22550;BME280;11441;57.164;-2.120;2023-04-15T00:15:39;100833.13;;;7.07;100.00
22550;BME280;11441;57.164;-2.120;2023-04-15T00:18:06;100826.84;;;7.06;100.00
22550;BME280;11441;57.164;-2.120;2023-04-15T00:20:36;100832.66;;;7.05;100.00
22550;BME280;11441;57.164;-2.120;2023-04-15T00:23:04;100835.72;;;7.03;100.00
22550;BME280;11441;57.164;-2.120;2023-04-15T00:25:31;100840.22;;;7.08;100.00
22550;BME280;11441;57.164;-2.120;2023-04-15T00:27:58;100836.47;;;7.21;100.00
22550;BME280;11441;57.164;-2.120;2023-04-15T00:30:25;100846.09;;;7.27;100.00
22550;BME280;11441;57.164;-2.120;2023-04-15T00:32:52;100845.78;;;7.29;100.00
22550;BME280;11441;57.164;-2.120;2023-04-15T00:35:21;100852.81;;;7.47;100.00
22550;BME280;11441;57.164;-2.120;2023-04-15T00:37:49;100848.78;;;7.45;100.00
22550;BME280;11441;57.164;-2.120;2023-04-15T00:40:34;100862.47;;;7.45;100.00
22550;BME280;11441;57.164;-2.120;2023-04-15T00:43:01;100857.47;;;7.47;100.00
22550;BME280;11441;57.164;-2.120;2023-04-15T00:45:28;100865.63;;;7.55;100.00
22550;BME280;11441;57.164;-2.120;2023-04-15T00:47:55;100858.16;;;7.44;100.00
22550;BME280;11441;57.164;-2.120;2023-04-15T00:50:41;100869.53;;;7.54;100.00
22550;BME280;11441;57.164;-2.120;2023-04-15T00:53:07;100871.56;;;7.66;100.00
22550;BME280;11441;57.164;-2.120;2023-04-15T00:55:34;100873.81;;;7.64;100.00
22550;BME280;11441;57.164;-2.120;2023-04-15T00:58:01;100868.84;;;7.66;100.00
22550;BME280;11441;57.164;-2.120;2023-04-15T01:00:29;100874.34;;;7.58;100.00
22550;BME280;11441;57.164;-2.120;2023-04-15T01:02:57;100879.47;;;7.59;100.00
22550;BME280;11441;57.164;-2.120;2023-04-15T01:05:25;100878.50;;;7.64;100.00
22550;BME280;11441;57.164;-2.120;2023-04-15T01:07:52;100885.31;;;7.58;100.00
22550;BME280;11441;57.164;-2.120;2023-04-15T01:10:20;100891.41;;;7.63;100.00
22550;BME280;11441;57.164;-2.120;2023-04-15T01:13:06;100887.56;;;7.55;100.00
22550;BME280;11441;57.164;-2.120;2023-04-15T01:15:34;100879.84;;;7.58;100.00
22550;BME280;11441;57.164;-2.120;2023-04-15T01:18:01;100894.63;;;7.65;100.00
22550;BME280;11441;57.164;-2.120;2023-04-15T01:20:28;100898.22;;;7.57;100.00
22550;BME280;11441;57.164;-2.120;2023-04-15T01:22:55;100894.66;;;7.57;100.00
22550;BME280;11441;57.164;-2.120;2023-04-15T01:25:32;100899.88;;;7.49;100.00
22550;BME280;11441;57.164;-2.120;2023-04-15T01:28:00;100905.31;;;7.58;100.00
22550;BME280;11441;57.164;-2.120;2023-04-15T01:30:28;100918.56;;;7.47;100.00
22550;BME280;11441;57.164;-2.120;2023-04-15T01:32:55;100915.88;;;7.39;100.00
22550;BME280;11441;57.164;-2.120;2023-04-15T01:35:22;100918.31;;;7.23;100.00
22550;BME280;11441;57.164;-2.120;2023-04-15T01:37:50;100909.19;;;7.10;100.00
22550;BME280;11441;57.164;-2.120;2023-04-15T01:40:17;100919.88;;;7.41;100.00
22550;BME280;11441;57.164;-2.120;2023-04-15T01:42:44;100922.00;;;7.35;100.00
22550;BME280;11441;57.164;-2.120;2023-04-15T01:45:11;100919.50;;;7.13;100.00
22550;BME280;11441;57.164;-2.120;2023-04-15T01:47:39;100932.22;;;7.17;100.00
22550;BME280;11441;57.164;-2.120;2023-04-15T01:50:09;100923.31;;;7.21;100.00
22550;BME280;11441;57.164;-2.120;2023-04-15T01:52:36;100933.78;;;7.27;100.00
22550;BME280;11441;57.164;-2.120;2023-04-15T01:55:03;100940.22;;;7.23;100.00
22550;BME280;11441;57.164;-2.120;2023-04-15T01:57:30;100948.28;;;7.19;100.00
22550;BME280;11441;57.164;-2.120;2023-04-15T01:59:57;100948.25;;;7.36;100.00
22550;BME280;11441;57.164;-2.120;2023-04-15T02:02:24;100953.13;;;7.31;100.00
22550;BME280;11441;57.164;-2.120;2023-04-15T02:04:54;100958.28;;;7.24;100.00
22550;BME280;11441;57.164;-2.120;2023-04-15T02:07:43;100951.25;;;6.96;100.00
22550;BME280;11441;57.164;-2.120;2023-04-15T02:10:10;100956.88;;;7.00;100.00
22550;BME280;11441;57.164;-2.120;2023-04-15T02:12:39;100956.69;;;7.05;100.00
22550;BME280;11441;57.164;-2.120;2023-04-15T02:15:06;100960.84;;;7.38;100.00
22550;BME280;11441;57.164;-2.120;2023-04-15T02:17:34;100972.78;;;7.24;100.00
22550;BME280;11441;57.164;-2.120;2023-04-15T02:20:01;100964.88;;;7.31;100.00
22550;BME280;11441;57.164;-2.120;2023-04-15T02:22:30;100975.97;;;7.44;100.00
22550;BME280;11441;57.164;-2.120;2023-04-15T02:24:57;100970.44;;;7.61;100.00
22550;BME280;11441;57.164;-2.120;2023-04-15T02:27:43;100981.69;;;7.68;100.00
22550;BME280;11441;57.164;-2.120;2023-04-15T02:30:10;100975.16;;;7.43;100.00
22550;BME280;11441;57.164;-2.120;2023-04-15T02:32:37;100975.53;;;7.24;100.00
22550;BME280;11441;57.164;-2.120;2023-04-15T02:35:04;100981.88;;;6.90;100.00
22550;BME280;11441;57.164;-2.120;2023-04-15T02:37:49;100969.94;;;6.86;100.00
22550;BME280;11441;57.164;-2.120;2023-04-15T02:40:17;100976.56;;;6.93;100.00
22550;BME280;11441;57.164;-2.120;2023-04-15T02:42:44;100981.34;;;7.14;100.00
22550;BME280;11441;57.164;-2.120;2023-04-15T02:45:14;100983.13;;;7.18;100.00
22550;BME280;11441;57.164;-2.120;2023-04-15T02:47:43;100992.63;;;7.30;100.00
22550;BME280;11441;57.164;-2.120;2023-04-15T02:50:12;100995.19;;;7.26;100.00
22550;BME280;11441;57.164;-2.120;2023-04-15T02:52:41;100995.22;;;7.17;100.00
22550;BME280;11441;57.164;-2.120;2023-04-15T02:55:09;101011.44;;;7.40;100.00
22550;BME280;11441;57.164;-2.120;2023-04-15T02:57:36;101013.91;;;7.07;100.00
22550;BME280;11441;57.164;-2.120;2023-04-15T03:00:07;101010.22;;;7.03;100.00
22550;BME280;11441;57.164;-2.120;2023-04-15T03:02:38;101020.53;;;6.97;100.00
22550;BME280;11441;57.164;-2.120;2023-04-15T03:05:06;101025.50;;;7.30;100.00
22550;BME280;11441;57.164;-2.120;2023-04-15T03:07:33;101035.13;;;7.36;100.00
22550;BME280;11441;57.164;-2.120;2023-04-15T03:10:01;101046.91;;;7.36;100.00
22550;BME280;11441;57.164;-2.120;2023-04-15T03:12:28;101041.28;;;7.24;100.00
22550;BME280;11441;57.164;-2.120;2023-04-15T03:14:56;101047.88;;;7.41;100.00
22550;BME280;11441;57.164;-2.120;2023-04-15T03:17:31;101054.47;;;7.48;100.00
22550;BME280;11441;57.164;-2.120;2023-04-15T03:20:00;101055.56;;;7.65;100.00
22550;BME280;11441;57.164;-2.120;2023-04-15T03:22:28;101058.50;;;7.51;100.00
22550;BME280;11441;57.164;-2.120;2023-04-15T03:24:55;101059.03;;;7.09;100.00
22550;BME280;11441;57.164;-2.120;2023-04-15T03:27:22;101055.13;;;7.02;100.00
22550;BME280;11441;57.164;-2.120;2023-04-15T03:29:53;101061.28;;;7.16;100.00
22550;BME280;11441;57.164;-2.120;2023-04-15T03:32:21;101067.41;;;6.87;100.00
22550;BME280;11441;57.164;-2.120;2023-04-15T03:34:48;101088.00;;;6.84;100.00
22550;BME280;11441;57.164;-2.120;2023-04-15T03:37:15;101085.56;;;6.83;100.00
22550;BME280;11441;57.164;-2.120;2023-04-15T03:39:41;101096.53;;;6.91;100.00
22550;BME280;11441;57.164;-2.120;2023-04-15T03:42:08;101095.13;;;7.11;100.00
22550;BME280;11441;57.164;-2.120;2023-04-15T03:44:35;101091.25;;;7.04;100.00
22550;BME280;11441;57.164;-2.120;2023-04-15T03:47:02;101098.00;;;7.06;100.00
22550;BME280;11441;57.164;-2.120;2023-04-15T03:49:29;101108.63;;;6.99;100.00
22550;BME280;11441;57.164;-2.120;2023-04-15T03:51:56;101114.91;;;6.91;100.00
22550;BME280;11441;57.164;-2.120;2023-04-15T03:54:23;101108.16;;;6.88;100.00
22550;BME280;11441;57.164;-2.120;2023-04-15T03:56:49;101118.09;;;6.75;100.00
22550;BME280;11441;57.164;-2.120;2023-04-15T03:59:35;101123.13;;;6.99;100.00
22550;BME280;11441;57.164;-2.120;2023-04-15T04:02:02;101124.75;;;7.01;100.00
22550;BME280;11441;57.164;-2.120;2023-04-15T04:04:29;101117.66;;;6.99;100.00
22550;BME280;11441;57.164;-2.120;2023-04-15T04:06:55;101119.91;;;7.06;100.00
22550;BME280;11441;57.164;-2.120;2023-04-15T04:09:22;101120.25;;;7.05;100.00
22550;BME280;11441;57.164;-2.120;2023-04-15T04:11:49;101122.03;;;7.27;100.00
22550;BME280;11441;57.164;-2.120;2023-04-15T04:14:16;101125.25;;;7.29;100.00
22550;BME280;11441;57.164;-2.120;2023-04-15T04:16:43;101129.06;;;6.84;100.00
22550;BME280;11441;57.164;-2.120;2023-04-15T04:19:10;101121.34;;;6.77;100.00
22550;BME280;11441;57.164;-2.120;2023-04-15T04:21:37;101134.94;;;6.60;100.00
22550;BME280;11441;57.164;-2.120;2023-04-15T04:24:05;101138.81;;;6.50;100.00
22550;BME280;11441;57.164;-2.120;2023-04-15T04:26:31;101141.38;;;6.47;100.00
22550;BME280;11441;57.164;-2.120;2023-04-15T04:28:58;101143.00;;;6.56;100.00
22550;BME280;11441;57.164;-2.120;2023-04-15T04:31:44;101143.19;;;6.69;100.00
22550;BME280;11441;57.164;-2.120;2023-04-15T04:34:12;101143.94;;;6.43;100.00
22550;BME280;11441;57.164;-2.120;2023-04-15T04:36:39;101146.91;;;6.64;100.00
22550;BME280;11441;57.164;-2.120;2023-04-15T04:39:06;101154.69;;;6.79;100.00
22550;BME280;11441;57.164;-2.120;2023-04-15T04:41:33;101162.03;;;6.30;100.00
22550;BME280;11441;57.164;-2.120;2023-04-15T04:44:00;101168.25;;;6.13;100.00
22550;BME280;11441;57.164;-2.120;2023-04-15T04:46:45;101170.84;;;6.18;100.00
22550;BME280;11441;57.164;-2.120;2023-04-15T04:49:29;101177.69;;;6.07;100.00
22550;BME280;11441;57.164;-2.120;2023-04-15T04:51:56;101170.47;;;6.11;100.00
22550;BME280;11441;57.164;-2.120;2023-04-15T04:54:41;101177.88;;;6.11;100.00
22550;BME280;11441;57.164;-2.120;2023-04-15T04:57:08;101175.88;;;6.02;100.00
22550;BME280;11441;57.164;-2.120;2023-04-15T04:59:35;101191.50;;;6.02;100.00
22550;BME280;11441;57.164;-2.120;2023-04-15T05:02:02;101180.31;;;6.12;100.00
22550;BME280;11441;57.164;-2.120;2023-04-15T05:04:29;101185.59;;;6.09;100.00
22550;BME280;11441;57.164;-2.120;2023-04-15T05:06:57;101185.63;;;5.95;100.00
22550;BME280;11441;57.164;-2.120;2023-04-15T05:09:25;101193.72;;;5.77;100.00
22550;BME280;11441;57.164;-2.120;2023-04-15T05:11:51;101186.44;;;5.73;100.00
22550;BME280;11441;57.164;-2.120;2023-04-15T05:14:18;101203.03;;;5.76;100.00
22550;BME280;11441;57.164;-2.120;2023-04-15T05:16:49;101189.63;;;5.66;100.00
22550;BME280;11441;57.164;-2.120;2023-04-15T05:19:34;101207.13;;;5.65;100.00
22550;BME280;11441;57.164;-2.120;2023-04-15T05:22:01;101207.44;;;5.63;100.00
22550;BME280;11441;57.164;-2.120;2023-04-15T05:24:28;101211.69;;;5.33;100.00
22550;BME280;11441;57.164;-2.120;2023-04-15T05:26:55;101214.72;;;5.32;100.00
22550;BME280;11441;57.164;-2.120;2023-04-15T05:29:40;101224.09;;;5.39;100.00
22550;BME280;11441;57.164;-2.120;2023-04-15T05:32:08;101218.66;;;5.62;100.00
22550;BME280;11441;57.164;-2.120;2023-04-15T05:34:34;101236.41;;;5.87;100.00
22550;BME280;11441;57.164;-2.120;2023-04-15T05:37:01;101244.47;;;5.70;100.00
22550;BME280;11441;57.164;-2.120;2023-04-15T05:39:28;101249.25;;;5.50;100.00
22550;BME280;11441;57.164;-2.120;2023-04-15T05:41:54;101244.19;;;5.57;100.00
22550;BME280;11441;57.164;-2.120;2023-04-15T05:44:23;101241.94;;;5.73;100.00
22550;BME280;11441;57.164;-2.120;2023-04-15T05:47:08;101243.56;;;5.60;100.00
22550;BME280;11441;57.164;-2.120;2023-04-15T05:49:36;101254.72;;;5.50;100.00
22550;BME280;11441;57.164;-2.120;2023-04-15T05:52:03;101258.22;;;5.14;100.00
22550;BME280;11441;57.164;-2.120;2023-04-15T05:54:48;101253.47;;;5.06;100.00
22550;BME280;11441;57.164;-2.120;2023-04-15T05:57:15;101271.38;;;5.12;100.00
22550;BME280;11441;57.164;-2.120;2023-04-15T05:59:42;101271.47;;;5.21;100.00
22550;BME280;11441;57.164;-2.120;2023-04-15T06:02:09;101258.75;;;5.02;100.00
22550;BME280;11441;57.164;-2.120;2023-04-15T06:04:36;101272.69;;;5.01;100.00
22550;BME280;11441;57.164;-2.120;2023-04-15T06:07:03;101274.63;;;5.00;100.00
22550;BME280;11441;57.164;-2.120;2023-04-15T06:09:30;101269.56;;;5.07;100.00
22550;BME280;11441;57.164;-2.120;2023-04-15T06:11:57;101271.78;;;5.19;100.00
22550;BME280;11441;57.164;-2.120;2023-04-15T06:14:24;101286.13;;;5.39;100.00
22550;BME280;11441;57.164;-2.120;2023-04-15T06:16:51;101284.78;;;5.50;100.00
22550;BME280;11441;57.164;-2.120;2023-04-15T06:19:18;101283.19;;;5.35;100.00
22550;BME280;11441;57.164;-2.120;2023-04-15T06:21:45;101279.44;;;5.31;100.00
22550;BME280;11441;57.164;-2.120;2023-04-15T06:24:12;101295.22;;;5.34;100.00
22550;BME280;11441;57.164;-2.120;2023-04-15T06:26:38;101300.47;;;5.44;100.00
22550;BME280;11441;57.164;-2.120;2023-04-15T06:29:05;101302.00;;;5.51;100.00
22550;BME280;11441;57.164;-2.120;2023-04-15T06:31:32;101303.63;;;5.24;100.00
22550;BME280;11441;57.164;-2.120;2023-04-15T06:33:59;101312.50;;;5.57;100.00
22550;BME280;11441;57.164;-2.120;2023-04-15T06:36:43;101312.72;;;5.61;100.00
22550;BME280;11441;57.164;-2.120;2023-04-15T06:39:11;101323.13;;;5.31;100.00
22550;BME280;11441;57.164;-2.120;2023-04-15T06:41:37;101330.44;;;5.50;100.00
22550;BME280;11441;57.164;-2.120;2023-04-15T06:44:04;101329.81;;;5.53;100.00
22550;BME280;11441;57.164;-2.120;2023-04-15T06:46:31;101337.63;;;5.45;100.00
22550;BME280;11441;57.164;-2.120;2023-04-15T06:48:58;101336.78;;;5.17;100.00
22550;BME280;11441;57.164;-2.120;2023-04-15T06:51:25;101343.69;;;5.28;100.00
22550;BME280;11441;57.164;-2.120;2023-04-15T06:53:52;101345.00;;;5.45;100.00
22550;BME280;11441;57.164;-2.120;2023-04-15T06:56:19;101346.63;;;5.32;100.00
22550;BME280;11441;57.164;-2.120;2023-04-15T06:58:46;101355.13;;;5.44;100.00
22550;BME280;11441;57.164;-2.120;2023-04-15T07:01:31;101350.88;;;5.10;100.00
22550;BME280;11441;57.164;-2.120;2023-04-15T07:03:58;101354.22;;;5.21;100.00
22550;BME280;11441;57.164;-2.120;2023-04-15T07:06:26;101353.31;;;5.26;100.00
22550;BME280;11441;57.164;-2.120;2023-04-15T07:08:53;101358.16;;;5.43;100.00
22550;BME280;11441;57.164;-2.120;2023-04-15T07:11:21;101361.81;;;5.38;100.00
22550;BME280;11441;57.164;-2.120;2023-04-15T07:13:48;101367.03;;;5.62;100.00
22550;BME280;11441;57.164;-2.120;2023-04-15T07:16:14;101375.97;;;5.40;100.00
22550;BME280;11441;57.164;-2.120;2023-04-15T07:18:41;101375.56;;;5.33;100.00
22550;BME280;11441;57.164;-2.120;2023-04-15T07:21:09;101371.81;;;5.43;100.00
22550;BME280;11441;57.164;-2.120;2023-04-15T07:23:36;101385.78;;;5.55;100.00
22550;BME280;11441;57.164;-2.120;2023-04-15T07:26:03;101388.50;;;5.83;100.00
22550;BME280;11441;57.164;-2.120;2023-04-15T07:28:29;101405.69;;;6.11;100.00
22550;BME280;11441;57.164;-2.120;2023-04-15T07:30:57;101401.88;;;6.35;100.00
22550;BME280;11441;57.164;-2.120;2023-04-15T07:33:24;101405.31;;;6.63;100.00
22550;BME280;11441;57.164;-2.120;2023-04-15T07:35:50;101411.84;;;6.53;100.00
22550;BME280;11441;57.164;-2.120;2023-04-15T07:38:17;101413.19;;;6.42;100.00
22550;BME280;11441;57.164;-2.120;2023-04-15T07:40:45;101422.09;;;6.48;100.00
22550;BME280;11441;57.164;-2.120;2023-04-15T07:43:12;101427.63;;;6.56;100.00
22550;BME280;11441;57.164;-2.120;2023-04-15T07:45:39;101424.09;;;6.56;100.00
22550;BME280;11441;57.164;-2.120;2023-04-15T07:48:06;101427.16;;;6.77;100.00
22550;BME280;11441;57.164;-2.120;2023-04-15T07:50:33;101436.88;;;6.83;100.00
22550;BME280;11441;57.164;-2.120;2023-04-15T07:53:00;101443.44;;;6.82;100.00
22550;BME280;11441;57.164;-2.120;2023-04-15T07:55:27;101439.41;;;6.57;100.00
22550;BME280;11441;57.164;-2.120;2023-04-15T07:57:56;101438.78;;;6.60;100.00
22550;BME280;11441;57.164;-2.120;2023-04-15T08:00:22;101448.38;;;6.94;100.00
22550;BME280;11441;57.164;-2.120;2023-04-15T08:02:49;101447.75;;;6.97;100.00
22550;BME280;11441;57.164;-2.120;2023-04-15T08:05:35;101451.44;;;7.24;100.00
22550;BME280;11441;57.164;-2.120;2023-04-15T08:08:02;101450.97;;;7.22;100.00
22550;BME280;11441;57.164;-2.120;2023-04-15T08:10:29;101444.44;;;7.09;100.00
22550;BME280;11441;57.164;-2.120;2023-04-15T08:12:56;101460.25;;;7.43;100.00
22550;BME280;11441;57.164;-2.120;2023-04-15T08:15:23;101455.53;;;7.66;100.00
22550;BME280;11441;57.164;-2.120;2023-04-15T08:17:50;101451.63;;;7.59;100.00
22550;BME280;11441;57.164;-2.120;2023-04-15T08:20:17;101464.56;;;7.67;100.00
22550;BME280;11441;57.164;-2.120;2023-04-15T08:22:44;101445.22;;;7.72;100.00
22550;BME280;11441;57.164;-2.120;2023-04-15T08:25:13;101468.50;;;7.92;100.00
22550;BME280;11441;57.164;-2.120;2023-04-15T08:27:40;101473.19;;;7.91;100.00
22550;BME280;11441;57.164;-2.120;2023-04-15T08:30:07;101469.50;;;7.96;100.00
22550;BME280;11441;57.164;-2.120;2023-04-15T08:32:34;101463.91;;;8.10;100.00
22550;BME280;11441;57.164;-2.120;2023-04-15T08:35:01;101469.72;;;8.26;100.00
22550;BME280;11441;57.164;-2.120;2023-04-15T08:37:28;101483.94;;;8.28;100.00
22550;BME280;11441;57.164;-2.120;2023-04-15T08:39:54;101487.22;;;8.47;100.00
22550;BME280;11441;57.164;-2.120;2023-04-15T08:42:36;101496.03;;;8.36;100.00
22550;BME280;11441;57.164;-2.120;2023-04-15T08:45:04;101488.94;;;8.17;100.00
22550;BME280;11441;57.164;-2.120;2023-04-15T08:47:32;101476.50;;;8.28;100.00
22550;BME280;11441;57.164;-2.120;2023-04-15T08:50:02;101487.84;;;8.44;100.00
22550;BME280;11441;57.164;-2.120;2023-04-15T08:52:30;101486.59;;;8.51;100.00
22550;BME280;11441;57.164;-2.120;2023-04-15T08:54:59;101497.41;;;8.56;100.00
22550;BME280;11441;57.164;-2.120;2023-04-15T08:57:28;101492.81;;;8.34;100.00
22550;BME280;11441;57.164;-2.120;2023-04-15T08:59:55;101494.19;;;8.54;100.00
22550;BME280;11441;57.164;-2.120;2023-04-15T09:02:23;101498.53;;;8.55;100.00
22550;BME280;11441;57.164;-2.120;2023-04-15T09:04:52;101497.72;;;8.54;100.00
22550;BME280;11441;57.164;-2.120;2023-04-15T09:07:19;101502.25;;;8.59;100.00
22550;BME280;11441;57.164;-2.120;2023-04-15T09:09:47;101502.91;;;8.73;100.00
22550;BME280;11441;57.164;-2.120;2023-04-15T09:12:36;101506.28;;;8.87;100.00
22550;BME280;11441;57.164;-2.120;2023-04-15T09:15:03;101506.28;;;8.87;100.00
22550;BME280;11441;57.164;-2.120;2023-04-15T09:17:32;101501.44;;;8.67;100.00
22550;BME280;11441;57.164;-2.120;2023-04-15T09:20:09;101505.00;;;9.11;100.00
22550;BME280;11441;57.164;-2.120;2023-04-15T09:22:37;101509.47;;;9.24;100.00
22550;BME280;11441;57.164;-2.120;2023-04-15T09:27:51;101506.81;;;9.54;100.00
22550;BME280;11441;57.164;-2.120;2023-04-15T09:30:18;101511.97;;;9.65;100.00
22550;BME280;11441;57.164;-2.120;2023-04-15T09:32:57;101510.75;;;9.44;100.00
22550;BME280;11441;57.164;-2.120;2023-04-15T09:35:25;101523.34;;;9.46;100.00
22550;BME280;11441;57.164;-2.120;2023-04-15T09:38:04;101517.75;;;9.72;100.00
22550;BME280;11441;57.164;-2.120;2023-04-15T09:40:49;101524.94;;;9.55;100.00
22550;BME280;11441;57.164;-2.120;2023-04-15T09:43:17;101524.91;;;9.73;100.00
22550;BME280;11441;57.164;-2.120;2023-04-15T09:45:51;101522.19;;;9.55;100.00
22550;BME280;11441;57.164;-2.120;2023-04-15T09:48:23;101528.75;;;9.80;100.00
22550;BME280;11441;57.164;-2.120;2023-04-15T09:50:52;101530.75;;;9.62;100.00
22550;BME280;11441;57.164;-2.120;2023-04-15T09:53:21;101532.13;;;9.86;100.00
22550;BME280;11441;57.164;-2.120;2023-04-15T09:55:56;101534.41;;;9.84;100.00
22550;BME280;11441;57.164;-2.120;2023-04-15T09:58:25;101542.91;;;9.61;100.00
22550;BME280;11441;57.164;-2.120;2023-04-15T10:00:54;101551.63;;;9.63;100.00
22550;BME280;11441;57.164;-2.120;2023-04-15T10:03:26;101556.00;;;9.47;100.00
22550;BME280;11441;57.164;-2.120;2023-04-15T10:05:55;101555.22;;;9.47;100.00
22550;BME280;11441;57.164;-2.120;2023-04-15T10:08:24;101552.16;;;9.48;100.00
22550;BME280;11441;57.164;-2.120;2023-04-15T10:10:52;101557.50;;;9.44;100.00
22550;BME280;11441;57.164;-2.120;2023-04-15T10:13:37;101559.75;;;9.42;100.00
22550;BME280;11441;57.164;-2.120;2023-04-15T10:16:14;101564.94;;;9.53;100.00
22550;BME280;11441;57.164;-2.120;2023-04-15T10:18:44;101571.94;;;9.80;100.00
22550;BME280;11441;57.164;-2.120;2023-04-15T10:21:12;101564.28;;;9.94;100.00
22550;BME280;11441;57.164;-2.120;2023-04-15T10:23:47;101577.16;;;9.73;100.00
22550;BME280;11441;57.164;-2.120;2023-04-15T10:26:14;101574.59;;;9.68;100.00
22550;BME280;11441;57.164;-2.120;2023-04-15T10:28:43;101565.47;;;9.85;100.00
22550;BME280;11441;57.164;-2.120;2023-04-15T10:31:11;101568.28;;;10.14;100.00
22550;BME280;11441;57.164;-2.120;2023-04-15T10:33:42;101566.41;;;9.89;100.00
22550;BME280;11441;57.164;-2.120;2023-04-15T10:36:10;101573.66;;;10.02;100.00
22550;BME280;11441;57.164;-2.120;2023-04-15T10:38:43;101570.63;;;9.95;100.00
22550;BME280;11441;57.164;-2.120;2023-04-15T10:41:23;101572.91;;;9.93;100.00
22550;BME280;11441;57.164;-2.120;2023-04-15T10:44:03;101580.44;;;10.05;100.00
22550;BME280;11441;57.164;-2.120;2023-04-15T10:46:42;101573.41;;;9.86;100.00
22550;BME280;11441;57.164;-2.120;2023-04-15T10:49:10;101581.78;;;9.98;100.00
22550;BME280;11441;57.164;-2.120;2023-04-15T10:51:39;101579.28;;;10.14;100.00
22550;BME280;11441;57.164;-2.120;2023-04-15T10:54:14;101586.91;;;10.09;100.00
22550;BME280;11441;57.164;-2.120;2023-04-15T10:56:44;101579.56;;;10.22;100.00
22550;BME280;11441;57.164;-2.120;2023-04-15T10:59:11;101580.09;;;10.15;100.00
22550;BME280;11441;57.164;-2.120;2023-04-15T11:10:05;101580.13;;;10.06;100.00
22550;BME280;11441;57.164;-2.120;2023-04-15T11:12:52;101579.84;;;10.29;100.00
22550;BME280;11441;57.164;-2.120;2023-04-15T11:15:44;101584.50;;;10.46;100.00
22550;BME280;11441;57.164;-2.120;2023-04-15T11:18:22;101588.09;;;10.37;100.00
22550;BME280;11441;57.164;-2.120;2023-04-15T11:20:50;101589.16;;;10.54;100.00
22550;BME280;11441;57.164;-2.120;2023-04-15T11:23:18;101584.72;;;10.62;100.00
22550;BME280;11441;57.164;-2.120;2023-04-15T11:25:45;101593.41;;;10.72;100.00
22550;BME280;11441;57.164;-2.120;2023-04-15T11:28:14;101583.41;;;10.68;100.00
22550;BME280;11441;57.164;-2.120;2023-04-15T11:30:41;101587.03;;;10.81;100.00
22550;BME280;11441;57.164;-2.120;2023-04-15T11:33:09;101591.63;;;10.77;100.00
22550;BME280;11441;57.164;-2.120;2023-04-15T11:35:40;101586.25;;;10.80;100.00
22550;BME280;11441;57.164;-2.120;2023-04-15T11:38:13;101589.50;;;10.52;100.00
22550;BME280;11441;57.164;-2.120;2023-04-15T11:40:42;101602.28;;;10.48;100.00
22550;BME280;11441;57.164;-2.120;2023-04-15T11:46:00;101599.59;;;10.69;100.00
22550;BME280;11441;57.164;-2.120;2023-04-15T11:48:33;101612.09;;;10.67;100.00
22550;BME280;11441;57.164;-2.120;2023-04-15T11:51:05;101614.31;;;10.73;100.00
22550;BME280;11441;57.164;-2.120;2023-04-15T11:53:50;101617.84;;;10.53;100.00
22550;BME280;11441;57.164;-2.120;2023-04-15T11:56:19;101607.81;;;10.48;100.00
22550;BME280;11441;57.164;-2.120;2023-04-15T11:58:47;101613.31;;;10.48;100.00
22550;BME280;11441;57.164;-2.120;2023-04-15T12:01:16;101598.78;;;10.69;100.00
22550;BME280;11441;57.164;-2.120;2023-04-15T12:03:45;101602.44;;;10.82;100.00
22550;BME280;11441;57.164;-2.120;2023-04-15T12:09:11;101621.03;;;10.85;100.00
22550;BME280;11441;57.164;-2.120;2023-04-15T12:11:49;101609.53;;;10.83;100.00
22550;BME280;11441;57.164;-2.120;2023-04-15T12:16:48;101615.84;;;11.13;100.00
22550;BME280;11441;57.164;-2.120;2023-04-15T12:19:38;101624.84;;;11.01;100.00
22550;BME280;11441;57.164;-2.120;2023-04-15T12:22:09;101620.31;;;11.18;100.00
22550;BME280;11441;57.164;-2.120;2023-04-15T12:24:37;101614.53;;;11.10;100.00
22550;BME280;11441;57.164;-2.120;2023-04-15T12:27:10;101619.00;;;11.03;100.00
22550;BME280;11441;57.164;-2.120;2023-04-15T12:29:38;101613.41;;;11.11;100.00
22550;BME280;11441;57.164;-2.120;2023-04-15T12:32:10;101617.06;;;11.37;100.00
22550;BME280;11441;57.164;-2.120;2023-04-15T12:34:43;101615.00;;;11.33;100.00
22550;BME280;11441;57.164;-2.120;2023-04-15T12:37:28;101614.81;;;11.51;100.00
22550;BME280;11441;57.164;-2.120;2023-04-15T12:40:13;101627.25;;;11.03;100.00
22550;BME280;11441;57.164;-2.120;2023-04-15T12:42:40;101619.44;;;11.26;100.00
22550;BME280;11441;57.164;-2.120;2023-04-15T12:45:07;101627.19;;;11.11;100.00
22550;BME280;11441;57.164;-2.120;2023-04-15T12:47:34;101629.41;;;11.39;100.00
22550;BME280;11441;57.164;-2.120;2023-04-15T12:50:01;101622.06;;;11.43;100.00
22550;BME280;11441;57.164;-2.120;2023-04-15T12:52:28;101618.84;;;11.41;100.00
22550;BME280;11441;57.164;-2.120;2023-04-15T12:54:55;101621.06;;;11.27;100.00
22550;BME280;11441;57.164;-2.120;2023-04-15T12:57:22;101627.22;;;11.45;100.00
22550;BME280;11441;57.164;-2.120;2023-04-15T12:59:48;101626.69;;;11.51;100.00
22550;BME280;11441;57.164;-2.120;2023-04-15T13:02:15;101620.00;;;11.52;100.00
22550;BME280;11441;57.164;-2.120;2023-04-15T13:04:42;101624.47;;;11.45;100.00
22550;BME280;11441;57.164;-2.120;2023-04-15T13:07:09;101631.00;;;11.74;100.00
22550;BME280;11441;57.164;-2.120;2023-04-15T13:09:36;101623.56;;;11.41;100.00